Terminal Aerodrome Forecast
Issued by NWS

Home | Current Version | Previous Version | Text Only | Print | Product List | Glossary On
Versions: 1 2 3 4 5 6 7 8 9 10 11 12 13 14
298
FTUS43 KMQT 231120
TAFSAW
TAF
KSAW 231120Z 2312/2412 19008KT P6SM BKN080
     FM231600 19012G19KT P6SM BKN080
     FM240000 18011KT P6SM VCSH OVC045
     FM240200 19012KT 6SM -FZRA OVC025
     FM240300 19012KT 4SM -FZRA OVC015
     FM240500 20009KT 3SM -FZRA OVC008
     FM240600 20007KT 3SM -FZRA OVC003
     FM241000 22003KT P6SM -FZRA OVC008
     FM241100 25003KT P6SM -RA OVC008=

USA.gov is the U.S. government's official web portal to all federal, state and local government web resources and services.